Athol, ID

4:44 AM PDT on September 17, 2014 (GMT -0700)
Felts | Change Station
CLOSE
Current Station
Airport
Location: Spokane Felts,
Elevation: 1952 ft
Nearby Weather Stations

Elev 1952 ft 47.68 °N, 117.32 °W | Updated 51 minutes ago

Clear
Clear
54 °F
Feels Like 54 °F
N
0
Wind Variable Wind from North

Today
High -- | Low -- °F
--% Chance of Precip.
Yesterday
High -- | Low -- °F
Precip. -- in
6:26 AM 6:54 PM
Last Quarter, 36% visible
Pressure 29.81 in
Visibility 10.0 miles
Clouds Clear
Dew Point 45 °F
Humidity 72%
Rainfall 0.00 in
Snow Depth 1 in , 0 in , 0 in
UV 0 out of 12
Pollen 6.90 out of 12
Air Quality Not available.
Flu Activity Not available.
METAR KSFF 171053Z 00000KT 10SM CLR 12/07 A2985 RMK AO2 SLP093 T01220072

More Conditions Fewer Conditions

Pressure 29.81 in
Visibility 10.0 miles
Clouds Clear
Dew Point 45 °F
Humidity 72%
Rainfall 0.00 in
Snow Depth 1 in , 0 in , 0 in
UV 0 out of 12
Pollen 6.90 out of 12
Air Quality Not available.
Flu Activity Not available.
METAR KSFF 171053Z 00000KT 10SM CLR 12/07 A2985 RMK AO2 SLP093 T01220072

More Conditions Fewer Conditions

10-Day Weather Forecast

Almanac

Astronomy

Sep. 17, 2014 Rise Set
Actual Time 6:26 AM PDT 6:54 PM PDT
Civil Twilight 5:55 AM PDT 7:25 PM PDT
Nautical Twilight 5:18 AM PDT 8:02 PM PDT
Astronomical Twilight 4:40 AM PDT 8:40 PM PDT
Moon 12:11 AM PDT 3:25 PM PDT
Length of Visible Light 13h 30m
Length of Day
12h 27m
Tomorrow will be 3m 26s shorter.
Last Quarter, 36% of the Moon is Illuminated
Today
Last Quarter
Sep 24
New
Oct 1
First Quarter
Oct 8
Full
Oct 15
Last Quarter

Today's Extremes

State Highs State Lows

Community

WunderPhotos

Upload Photos

1,754,002 photos uploaded!

Nearby

Snow Depth

Station Depth Elevation
Jackson Peak 1 in 7070 ft
Crater Meadows 0 in 5960 ft
Bogus Basin 0 in 6340 ft
Sheep Mountain 0 in 6570 ft
Myrtle Creek 0 in 3520 ft

Earthquake Activity

City Distance Mag. Time & Date
No recent earthquake activity has been reported nearby.
Minimum magnitude displayed is 2.5.

Coastal Water Temperatures

Place Temperature
No Stations Reporting

Nearby Weather Stations